sensor_id;sensor_type;location;lat;lon;timestamp;P1;durP1;ratioP1;P2;durP2;ratioP2
75016;SDS011;63577;39.766;2.720;2023-08-06T00:01:22;5.20;;;1.50;;
75016;SDS011;63577;39.766;2.720;2023-08-06T00:03:48;3.80;;;1.30;;
75016;SDS011;63577;39.766;2.720;2023-08-06T00:06:13;4.50;;;1.60;;
75016;SDS011;63577;39.766;2.720;2023-08-06T00:08:38;4.50;;;1.80;;
75016;SDS011;63577;39.766;2.720;2023-08-06T00:11:04;7.00;;;1.90;;
75016;SDS011;63577;39.766;2.720;2023-08-06T00:13:29;5.90;;;1.70;;
75016;SDS011;63577;39.766;2.720;2023-08-06T00:15:54;4.10;;;1.80;;
75016;SDS011;63577;39.766;2.720;2023-08-06T00:18:20;4.70;;;1.40;;
75016;SDS011;63577;39.766;2.720;2023-08-06T00:20:45;4.70;;;1.50;;
75016;SDS011;63577;39.766;2.720;2023-08-06T00:23:10;5.00;;;1.60;;
75016;SDS011;63577;39.766;2.720;2023-08-06T00:25:36;3.70;;;1.40;;
75016;SDS011;63577;39.766;2.720;2023-08-06T00:28:01;4.10;;;1.60;;
75016;SDS011;63577;39.766;2.720;2023-08-06T00:30:26;4.10;;;1.60;;
75016;SDS011;63577;39.766;2.720;2023-08-06T00:32:52;4.80;;;1.70;;
75016;SDS011;63577;39.766;2.720;2023-08-06T00:35:17;4.10;;;1.50;;
75016;SDS011;63577;39.766;2.720;2023-08-06T00:37:43;4.80;;;1.50;;
75016;SDS011;63577;39.766;2.720;2023-08-06T00:40:08;4.10;;;1.50;;
75016;SDS011;63577;39.766;2.720;2023-08-06T00:42:34;4.50;;;1.20;;
75016;SDS011;63577;39.766;2.720;2023-08-06T00:45:00;5.00;;;1.50;;
75016;SDS011;63577;39.766;2.720;2023-08-06T00:47:25;4.50;;;1.60;;
75016;SDS011;63577;39.766;2.720;2023-08-06T00:49:51;4.80;;;1.90;;
75016;SDS011;63577;39.766;2.720;2023-08-06T00:52:16;4.90;;;1.70;;
75016;SDS011;63577;39.766;2.720;2023-08-06T00:54:42;4.90;;;1.70;;
75016;SDS011;63577;39.766;2.720;2023-08-06T00:57:07;4.20;;;1.50;;
75016;SDS011;63577;39.766;2.720;2023-08-06T00:59:34;4.00;;;1.70;;
75016;SDS011;63577;39.766;2.720;2023-08-06T01:01:59;4.00;;;1.90;;
75016;SDS011;63577;39.766;2.720;2023-08-06T01:04:25;5.80;;;1.90;;
75016;SDS011;63577;39.766;2.720;2023-08-06T01:14:20;4.90;;;1.80;;
75016;SDS011;63577;39.766;2.720;2023-08-06T01:16:49;4.70;;;1.80;;
75016;SDS011;63577;39.766;2.720;2023-08-06T01:19:18;3.70;;;1.60;;
75016;SDS011;63577;39.766;2.720;2023-08-06T01:21:44;4.50;;;1.60;;
75016;SDS011;63577;39.766;2.720;2023-08-06T01:24:09;4.30;;;1.70;;
75016;SDS011;63577;39.766;2.720;2023-08-06T01:31:37;4.60;;;1.40;;
75016;SDS011;63577;39.766;2.720;2023-08-06T01:34:03;5.20;;;1.60;;
75016;SDS011;63577;39.766;2.720;2023-08-06T01:36:28;4.80;;;1.50;;
75016;SDS011;63577;39.766;2.720;2023-08-06T01:38:55;6.00;;;2.00;;
75016;SDS011;63577;39.766;2.720;2023-08-06T01:41:22;5.10;;;1.70;;
75016;SDS011;63577;39.766;2.720;2023-08-06T01:43:47;4.20;;;1.80;;
75016;SDS011;63577;39.766;2.720;2023-08-06T01:46:13;4.60;;;1.50;;
75016;SDS011;63577;39.766;2.720;2023-08-06T01:48:38;4.60;;;1.70;;
75016;SDS011;63577;39.766;2.720;2023-08-06T01:51:04;4.10;;;1.40;;
75016;SDS011;63577;39.766;2.720;2023-08-06T01:53:30;4.20;;;1.80;;
75016;SDS011;63577;39.766;2.720;2023-08-06T01:55:56;3.50;;;1.50;;
75016;SDS011;63577;39.766;2.720;2023-08-06T01:58:22;4.10;;;1.40;;
75016;SDS011;63577;39.766;2.720;2023-08-06T02:00:47;4.40;;;1.50;;
75016;SDS011;63577;39.766;2.720;2023-08-06T02:03:13;4.10;;;1.70;;
75016;SDS011;63577;39.766;2.720;2023-08-06T02:05:38;4.90;;;1.70;;
75016;SDS011;63577;39.766;2.720;2023-08-06T02:08:03;3.90;;;1.40;;
75016;SDS011;63577;39.766;2.720;2023-08-06T02:10:29;4.30;;;1.80;;
75016;SDS011;63577;39.766;2.720;2023-08-06T02:12:54;3.90;;;1.60;;
75016;SDS011;63577;39.766;2.720;2023-08-06T02:15:19;4.90;;;2.00;;
75016;SDS011;63577;39.766;2.720;2023-08-06T02:17:45;5.40;;;1.50;;
75016;SDS011;63577;39.766;2.720;2023-08-06T02:20:10;5.10;;;1.60;;
75016;SDS011;63577;39.766;2.720;2023-08-06T02:22:35;4.80;;;1.70;;
75016;SDS011;63577;39.766;2.720;2023-08-06T02:25:01;4.10;;;1.30;;
75016;SDS011;63577;39.766;2.720;2023-08-06T02:27:26;4.70;;;1.80;;
75016;SDS011;63577;39.766;2.720;2023-08-06T02:29:52;6.50;;;1.70;;
75016;SDS011;63577;39.766;2.720;2023-08-06T02:32:17;4.40;;;1.90;;
75016;SDS011;63577;39.766;2.720;2023-08-06T02:34:42;4.20;;;1.60;;
75016;SDS011;63577;39.766;2.720;2023-08-06T02:37:08;4.40;;;1.80;;
75016;SDS011;63577;39.766;2.720;2023-08-06T02:39:33;4.60;;;1.60;;
75016;SDS011;63577;39.766;2.720;2023-08-06T02:41:59;5.00;;;1.60;;
75016;SDS011;63577;39.766;2.720;2023-08-06T02:44:27;3.80;;;1.50;;
75016;SDS011;63577;39.766;2.720;2023-08-06T02:46:52;5.60;;;1.80;;
75016;SDS011;63577;39.766;2.720;2023-08-06T02:49:17;4.60;;;1.60;;
75016;SDS011;63577;39.766;2.720;2023-08-06T02:51:44;5.50;;;1.60;;
75016;SDS011;63577;39.766;2.720;2023-08-06T02:54:10;5.20;;;1.60;;
75016;SDS011;63577;39.766;2.720;2023-08-06T02:56:35;5.10;;;1.50;;
75016;SDS011;63577;39.766;2.720;2023-08-06T02:59:00;5.90;;;1.80;;
75016;SDS011;63577;39.766;2.720;2023-08-06T03:01:26;4.40;;;1.50;;
75016;SDS011;63577;39.766;2.720;2023-08-06T03:03:52;5.40;;;2.10;;
75016;SDS011;63577;39.766;2.720;2023-08-06T03:06:17;6.00;;;1.70;;
75016;SDS011;63577;39.766;2.720;2023-08-06T03:08:42;3.70;;;1.60;;
75016;SDS011;63577;39.766;2.720;2023-08-06T03:11:08;4.90;;;1.90;;
75016;SDS011;63577;39.766;2.720;2023-08-06T03:13:33;4.40;;;1.70;;
75016;SDS011;63577;39.766;2.720;2023-08-06T03:15:59;4.50;;;1.80;;
75016;SDS011;63577;39.766;2.720;2023-08-06T03:18:25;5.20;;;1.60;;
75016;SDS011;63577;39.766;2.720;2023-08-06T03:20:53;4.40;;;1.90;;
75016;SDS011;63577;39.766;2.720;2023-08-06T03:23:18;3.80;;;1.80;;
75016;SDS011;63577;39.766;2.720;2023-08-06T03:25:44;6.40;;;1.80;;
75016;SDS011;63577;39.766;2.720;2023-08-06T03:28:09;6.00;;;1.70;;
75016;SDS011;63577;39.766;2.720;2023-08-06T03:30:34;4.40;;;1.80;;
75016;SDS011;63577;39.766;2.720;2023-08-06T03:33:00;5.30;;;1.80;;
75016;SDS011;63577;39.766;2.720;2023-08-06T03:35:25;4.90;;;1.60;;
75016;SDS011;63577;39.766;2.720;2023-08-06T03:37:50;4.90;;;1.70;;
75016;SDS011;63577;39.766;2.720;2023-08-06T03:40:16;3.80;;;1.50;;
75016;SDS011;63577;39.766;2.720;2023-08-06T03:42:41;6.40;;;1.70;;
75016;SDS011;63577;39.766;2.720;2023-08-06T03:45:07;4.00;;;1.60;;
75016;SDS011;63577;39.766;2.720;2023-08-06T03:47:32;4.70;;;1.50;;
75016;SDS011;63577;39.766;2.720;2023-08-06T03:49:58;4.80;;;1.70;;
75016;SDS011;63577;39.766;2.720;2023-08-06T03:52:23;4.00;;;1.60;;
75016;SDS011;63577;39.766;2.720;2023-08-06T03:54:48;5.80;;;1.90;;
75016;SDS011;63577;39.766;2.720;2023-08-06T03:57:14;3.60;;;1.80;;
75016;SDS011;63577;39.766;2.720;2023-08-06T03:59:39;5.00;;;1.90;;
75016;SDS011;63577;39.766;2.720;2023-08-06T04:02:05;4.50;;;1.80;;
75016;SDS011;63577;39.766;2.720;2023-08-06T04:04:30;3.80;;;1.50;;
75016;SDS011;63577;39.766;2.720;2023-08-06T04:06:55;4.20;;;1.50;;
75016;SDS011;63577;39.766;2.720;2023-08-06T04:09:21;4.10;;;1.60;;
75016;SDS011;63577;39.766;2.720;2023-08-06T04:11:46;4.80;;;1.50;;
75016;SDS011;63577;39.766;2.720;2023-08-06T04:14:11;4.80;;;1.70;;
75016;SDS011;63577;39.766;2.720;2023-08-06T04:16:37;4.40;;;1.50;;
75016;SDS011;63577;39.766;2.720;2023-08-06T04:19:02;4.10;;;1.60;;
75016;SDS011;63577;39.766;2.720;2023-08-06T04:21:27;4.00;;;1.70;;
75016;SDS011;63577;39.766;2.720;2023-08-06T04:23:53;4.00;;;1.60;;
75016;SDS011;63577;39.766;2.720;2023-08-06T04:26:18;4.50;;;1.70;;
75016;SDS011;63577;39.766;2.720;2023-08-06T04:28:43;6.30;;;2.10;;
75016;SDS011;63577;39.766;2.720;2023-08-06T04:31:09;6.00;;;1.90;;
75016;SDS011;63577;39.766;2.720;2023-08-06T04:33:34;6.00;;;1.90;;
75016;SDS011;63577;39.766;2.720;2023-08-06T04:36:00;4.20;;;1.80;;
75016;SDS011;63577;39.766;2.720;2023-08-06T04:38:25;4.10;;;1.70;;
75016;SDS011;63577;39.766;2.720;2023-08-06T04:40:51;3.80;;;1.60;;
75016;SDS011;63577;39.766;2.720;2023-08-06T04:43:16;5.10;;;1.70;;
75016;SDS011;63577;39.766;2.720;2023-08-06T04:45:53;4.70;;;2.00;;
75016;SDS011;63577;39.766;2.720;2023-08-06T04:48:18;5.00;;;1.80;;
75016;SDS011;63577;39.766;2.720;2023-08-06T04:50:44;5.50;;;2.00;;
75016;SDS011;63577;39.766;2.720;2023-08-06T04:53:10;6.60;;;1.80;;
75016;SDS011;63577;39.766;2.720;2023-08-06T04:55:35;4.40;;;2.10;;
75016;SDS011;63577;39.766;2.720;2023-08-06T04:58:00;4.10;;;1.60;;
75016;SDS011;63577;39.766;2.720;2023-08-06T05:00:26;5.30;;;1.80;;
75016;SDS011;63577;39.766;2.720;2023-08-06T05:02:51;3.50;;;1.70;;
75016;SDS011;63577;39.766;2.720;2023-08-06T05:05:16;4.20;;;1.70;;
75016;SDS011;63577;39.766;2.720;2023-08-06T05:07:42;7.40;;;1.80;;
75016;SDS011;63577;39.766;2.720;2023-08-06T05:10:07;5.60;;;1.80;;
75016;SDS011;63577;39.766;2.720;2023-08-06T05:12:32;5.30;;;1.60;;
75016;SDS011;63577;39.766;2.720;2023-08-06T05:14:58;4.70;;;1.90;;
75016;SDS011;63577;39.766;2.720;2023-08-06T05:17:23;5.10;;;1.50;;
75016;SDS011;63577;39.766;2.720;2023-08-06T05:19:49;6.20;;;2.20;;
75016;SDS011;63577;39.766;2.720;2023-08-06T05:22:14;5.70;;;2.10;;
75016;SDS011;63577;39.766;2.720;2023-08-06T05:24:40;6.40;;;1.90;;
75016;SDS011;63577;39.766;2.720;2023-08-06T05:27:05;5.90;;;2.10;;
75016;SDS011;63577;39.766;2.720;2023-08-06T05:29:30;4.60;;;1.70;;
75016;SDS011;63577;39.766;2.720;2023-08-06T05:31:56;4.20;;;1.70;;
75016;SDS011;63577;39.766;2.720;2023-08-06T05:34:21;4.60;;;1.80;;
75016;SDS011;63577;39.766;2.720;2023-08-06T05:36:46;7.80;;;1.60;;
75016;SDS011;63577;39.766;2.720;2023-08-06T05:39:12;5.60;;;1.90;;
75016;SDS011;63577;39.766;2.720;2023-08-06T05:41:37;6.80;;;1.90;;
75016;SDS011;63577;39.766;2.720;2023-08-06T05:44:03;5.10;;;1.70;;
75016;SDS011;63577;39.766;2.720;2023-08-06T05:46:28;6.90;;;2.10;;
75016;SDS011;63577;39.766;2.720;2023-08-06T05:48:53;6.40;;;1.90;;
75016;SDS011;63577;39.766;2.720;2023-08-06T05:51:19;6.00;;;2.00;;
75016;SDS011;63577;39.766;2.720;2023-08-06T05:53:44;6.60;;;1.80;;
75016;SDS011;63577;39.766;2.720;2023-08-06T05:56:12;5.10;;;1.70;;
75016;SDS011;63577;39.766;2.720;2023-08-06T05:58:37;5.50;;;1.70;;
75016;SDS011;63577;39.766;2.720;2023-08-06T06:01:02;7.80;;;4.70;;
75016;SDS011;63577;39.766;2.720;2023-08-06T06:03:28;7.20;;;4.50;;
75016;SDS011;63577;39.766;2.720;2023-08-06T06:05:53;8.20;;;3.50;;
75016;SDS011;63577;39.766;2.720;2023-08-06T06:08:18;6.40;;;4.10;;
75016;SDS011;63577;39.766;2.720;2023-08-06T06:10:44;4.90;;;2.30;;
75016;SDS011;63577;39.766;2.720;2023-08-06T06:13:09;6.20;;;2.30;;
75016;SDS011;63577;39.766;2.720;2023-08-06T06:15:34;4.20;;;2.00;;
75016;SDS011;63577;39.766;2.720;2023-08-06T06:18:00;5.90;;;1.70;;
75016;SDS011;63577;39.766;2.720;2023-08-06T06:20:25;6.60;;;2.00;;
75016;SDS011;63577;39.766;2.720;2023-08-06T06:22:50;5.90;;;1.60;;
75016;SDS011;63577;39.766;2.720;2023-08-06T06:25:16;5.80;;;1.80;;
75016;SDS011;63577;39.766;2.720;2023-08-06T06:27:41;5.40;;;1.50;;
75016;SDS011;63577;39.766;2.720;2023-08-06T06:30:06;5.80;;;1.40;;
75016;SDS011;63577;39.766;2.720;2023-08-06T06:32:32;4.10;;;1.40;;
75016;SDS011;63577;39.766;2.720;2023-08-06T06:34:59;6.00;;;1.20;;
75016;SDS011;63577;39.766;2.720;2023-08-06T06:37:24;4.10;;;1.20;;
75016;SDS011;63577;39.766;2.720;2023-08-06T06:39:50;5.80;;;1.30;;
75016;SDS011;63577;39.766;2.720;2023-08-06T06:42:15;24.00;;;10.70;;
75016;SDS011;63577;39.766;2.720;2023-08-06T06:44:41;31.20;;;15.90;;
75016;SDS011;63577;39.766;2.720;2023-08-06T06:47:06;31.60;;;15.80;;
75016;SDS011;63577;39.766;2.720;2023-08-06T06:49:32;25.70;;;12.40;;
75016;SDS011;63577;39.766;2.720;2023-08-06T06:51:57;25.60;;;11.90;;
75016;SDS011;63577;39.766;2.720;2023-08-06T06:54:23;24.70;;;11.70;;
75016;SDS011;63577;39.766;2.720;2023-08-06T06:56:48;17.50;;;7.80;;
75016;SDS011;63577;39.766;2.720;2023-08-06T06:59:13;13.90;;;5.90;;
75016;SDS011;63577;39.766;2.720;2023-08-06T07:01:39;15.30;;;6.30;;
75016;SDS011;63577;39.766;2.720;2023-08-06T07:04:04;14.50;;;5.80;;
75016;SDS011;63577;39.766;2.720;2023-08-06T07:06:30;13.20;;;5.90;;
75016;SDS011;63577;39.766;2.720;2023-08-06T07:08:55;9.00;;;2.90;;
75016;SDS011;63577;39.766;2.720;2023-08-06T07:11:21;7.00;;;2.30;;
75016;SDS011;63577;39.766;2.720;2023-08-06T07:13:46;11.40;;;3.40;;
75016;SDS011;63577;39.766;2.720;2023-08-06T07:16:12;11.40;;;3.30;;
75016;SDS011;63577;39.766;2.720;2023-08-06T07:18:37;8.20;;;1.80;;
75016;SDS011;63577;39.766;2.720;2023-08-06T07:21:02;15.50;;;3.90;;
75016;SDS011;63577;39.766;2.720;2023-08-06T07:23:28;10.90;;;3.00;;
75016;SDS011;63577;39.766;2.720;2023-08-06T07:25:53;5.00;;;1.30;;
75016;SDS011;63577;39.766;2.720;2023-08-06T07:28:18;5.00;;;1.20;;
75016;SDS011;63577;39.766;2.720;2023-08-06T07:30:44;4.90;;;1.20;;
75016;SDS011;63577;39.766;2.720;2023-08-06T07:33:10;4.60;;;1.20;;
75016;SDS011;63577;39.766;2.720;2023-08-06T07:35:36;6.10;;;1.20;;
75016;SDS011;63577;39.766;2.720;2023-08-06T07:38:01;5.60;;;1.20;;
75016;SDS011;63577;39.766;2.720;2023-08-06T07:40:27;5.20;;;1.10;;
75016;SDS011;63577;39.766;2.720;2023-08-06T07:42:52;6.50;;;1.50;;
75016;SDS011;63577;39.766;2.720;2023-08-06T07:45:18;4.90;;;1.00;;
75016;SDS011;63577;39.766;2.720;2023-08-06T07:47:43;6.00;;;1.00;;
75016;SDS011;63577;39.766;2.720;2023-08-06T07:50:09;6.10;;;1.20;;
75016;SDS011;63577;39.766;2.720;2023-08-06T07:52:34;6.50;;;1.50;;
75016;SDS011;63577;39.766;2.720;2023-08-06T07:55:00;6.90;;;1.40;;
75016;SDS011;63577;39.766;2.720;2023-08-06T07:57:26;6.60;;;1.40;;
75016;SDS011;63577;39.766;2.720;2023-08-06T07:59:52;6.00;;;1.00;;
75016;SDS011;63577;39.766;2.720;2023-08-06T08:02:19;7.40;;;1.20;;
75016;SDS011;63577;39.766;2.720;2023-08-06T08:04:44;6.20;;;1.20;;
75016;SDS011;63577;39.766;2.720;2023-08-06T08:07:12;9.60;;;1.30;;
75016;SDS011;63577;39.766;2.720;2023-08-06T08:09:37;6.50;;;1.20;;
75016;SDS011;63577;39.766;2.720;2023-08-06T08:12:03;6.40;;;1.40;;
75016;SDS011;63577;39.766;2.720;2023-08-06T08:14:28;7.40;;;1.00;;
75016;SDS011;63577;39.766;2.720;2023-08-06T08:16:54;6.90;;;1.90;;
75016;SDS011;63577;39.766;2.720;2023-08-06T08:19:19;6.40;;;1.60;;
75016;SDS011;63577;39.766;2.720;2023-08-06T08:21:45;6.00;;;1.10;;
75016;SDS011;63577;39.766;2.720;2023-08-06T08:24:10;8.40;;;2.30;;
75016;SDS011;63577;39.766;2.720;2023-08-06T08:26:35;5.40;;;1.20;;
75016;SDS011;63577;39.766;2.720;2023-08-06T08:29:01;7.10;;;1.20;;
75016;SDS011;63577;39.766;2.720;2023-08-06T08:31:26;5.40;;;1.10;;
75016;SDS011;63577;39.766;2.720;2023-08-06T08:33:53;5.40;;;1.10;;
75016;SDS011;63577;39.766;2.720;2023-08-06T08:36:19;6.40;;;1.40;;
75016;SDS011;63577;39.766;2.720;2023-08-06T08:38:44;4.90;;;1.10;;
75016;SDS011;63577;39.766;2.720;2023-08-06T08:41:10;6.00;;;1.20;;
75016;SDS011;63577;39.766;2.720;2023-08-06T08:43:36;6.00;;;1.10;;
75016;SDS011;63577;39.766;2.720;2023-08-06T08:46:01;6.80;;;1.40;;
75016;SDS011;63577;39.766;2.720;2023-08-06T08:48:27;5.00;;;1.10;;
75016;SDS011;63577;39.766;2.720;2023-08-06T08:50:53;4.40;;;1.00;;
75016;SDS011;63577;39.766;2.720;2023-08-06T08:53:18;6.30;;;1.30;;
75016;SDS011;63577;39.766;2.720;2023-08-06T08:55:49;5.50;;;1.20;;
75016;SDS011;63577;39.766;2.720;2023-08-06T08:58:15;4.90;;;1.00;;
75016;SDS011;63577;39.766;2.720;2023-08-06T09:00:41;8.00;;;1.20;;
75016;SDS011;63577;39.766;2.720;2023-08-06T09:03:07;7.00;;;1.30;;
75016;SDS011;63577;39.766;2.720;2023-08-06T09:05:33;5.90;;;1.30;;
75016;SDS011;63577;39.766;2.720;2023-08-06T09:08:02;6.20;;;1.50;;
75016;SDS011;63577;39.766;2.720;2023-08-06T09:10:28;6.10;;;1.10;;
75016;SDS011;63577;39.766;2.720;2023-08-06T09:12:53;5.90;;;1.20;;
75016;SDS011;63577;39.766;2.720;2023-08-06T09:15:20;6.30;;;1.20;;
75016;SDS011;63577;39.766;2.720;2023-08-06T09:17:45;6.10;;;1.20;;
75016;SDS011;63577;39.766;2.720;2023-08-06T09:20:14;5.60;;;1.30;;
75016;SDS011;63577;39.766;2.720;2023-08-06T09:22:39;6.60;;;1.30;;
75016;SDS011;63577;39.766;2.720;2023-08-06T09:25:06;5.60;;;1.30;;
75016;SDS011;63577;39.766;2.720;2023-08-06T09:27:35;5.70;;;1.30;;
75016;SDS011;63577;39.766;2.720;2023-08-06T09:30:01;5.80;;;1.30;;
75016;SDS011;63577;39.766;2.720;2023-08-06T09:32:26;7.00;;;1.50;;
75016;SDS011;63577;39.766;2.720;2023-08-06T09:34:55;6.60;;;1.40;;
75016;SDS011;63577;39.766;2.720;2023-08-06T09:37:21;8.10;;;1.40;;
75016;SDS011;63577;39.766;2.720;2023-08-06T09:39:46;9.60;;;1.80;;
75016;SDS011;63577;39.766;2.720;2023-08-06T09:42:14;5.30;;;1.30;;
75016;SDS011;63577;39.766;2.720;2023-08-06T09:44:40;5.70;;;1.20;;
75016;SDS011;63577;39.766;2.720;2023-08-06T09:47:05;6.90;;;1.40;;
75016;SDS011;63577;39.766;2.720;2023-08-06T09:51:59;5.70;;;1.10;;
75016;SDS011;63577;39.766;2.720;2023-08-06T09:54:25;5.90;;;1.70;;
75016;SDS011;63577;39.766;2.720;2023-08-06T09:56:52;5.90;;;1.10;;
75016;SDS011;63577;39.766;2.720;2023-08-06T09:59:17;6.20;;;1.40;;
75016;SDS011;63577;39.766;2.720;2023-08-06T10:01:43;5.40;;;1.30;;
75016;SDS011;63577;39.766;2.720;2023-08-06T10:04:10;6.80;;;1.50;;
75016;SDS011;63577;39.766;2.720;2023-08-06T10:06:37;5.00;;;1.30;;
75016;SDS011;63577;39.766;2.720;2023-08-06T10:09:05;4.90;;;1.40;;
75016;SDS011;63577;39.766;2.720;2023-08-06T10:11:31;6.50;;;1.40;;
75016;SDS011;63577;39.766;2.720;2023-08-06T10:16:41;6.60;;;1.80;;
75016;SDS011;63577;39.766;2.720;2023-08-06T10:19:07;7.10;;;1.20;;
75016;SDS011;63577;39.766;2.720;2023-08-06T10:21:34;5.70;;;1.50;;
75016;SDS011;63577;39.766;2.720;2023-08-06T10:23:59;5.60;;;1.40;;
75016;SDS011;63577;39.766;2.720;2023-08-06T10:26:26;5.10;;;1.20;;
75016;SDS011;63577;39.766;2.720;2023-08-06T10:28:52;5.70;;;1.40;;
75016;SDS011;63577;39.766;2.720;2023-08-06T10:31:18;6.90;;;1.40;;
75016;SDS011;63577;39.766;2.720;2023-08-06T10:33:45;6.80;;;1.70;;
75016;SDS011;63577;39.766;2.720;2023-08-06T10:36:10;6.90;;;1.40;;
75016;SDS011;63577;39.766;2.720;2023-08-06T10:38:43;5.70;;;1.40;;
75016;SDS011;63577;39.766;2.720;2023-08-06T10:41:09;5.50;;;1.50;;
75016;SDS011;63577;39.766;2.720;2023-08-06T10:43:39;6.10;;;1.30;;
75016;SDS011;63577;39.766;2.720;2023-08-06T10:46:10;7.30;;;1.70;;
75016;SDS011;63577;39.766;2.720;2023-08-06T10:48:39;4.80;;;1.30;;
75016;SDS011;63577;39.766;2.720;2023-08-06T10:51:08;7.20;;;1.40;;
75016;SDS011;63577;39.766;2.720;2023-08-06T10:53:34;6.90;;;1.70;;
75016;SDS011;63577;39.766;2.720;2023-08-06T10:55:59;8.00;;;1.80;;
75016;SDS011;63577;39.766;2.720;2023-08-06T10:58:25;6.00;;;1.50;;
75016;SDS011;63577;39.766;2.720;2023-08-06T11:00:51;6.90;;;1.70;;
75016;SDS011;63577;39.766;2.720;2023-08-06T11:03:17;5.00;;;1.30;;
75016;SDS011;63577;39.766;2.720;2023-08-06T11:05:48;6.90;;;1.70;;
75016;SDS011;63577;39.766;2.720;2023-08-06T11:08:22;7.90;;;1.70;;
75016;SDS011;63577;39.766;2.720;2023-08-06T11:10:47;6.80;;;1.30;;
75016;SDS011;63577;39.766;2.720;2023-08-06T11:13:16;6.20;;;1.30;;
75016;SDS011;63577;39.766;2.720;2023-08-06T11:15:41;6.10;;;1.60;;
75016;SDS011;63577;39.766;2.720;2023-08-06T11:18:07;6.30;;;1.50;;
75016;SDS011;63577;39.766;2.720;2023-08-06T11:20:33;6.10;;;1.30;;
75016;SDS011;63577;39.766;2.720;2023-08-06T11:22:58;4.80;;;1.60;;
75016;SDS011;63577;39.766;2.720;2023-08-06T11:25:24;5.10;;;1.40;;
75016;SDS011;63577;39.766;2.720;2023-08-06T11:27:50;7.50;;;1.40;;
75016;SDS011;63577;39.766;2.720;2023-08-06T11:30:15;6.10;;;1.50;;
75016;SDS011;63577;39.766;2.720;2023-08-06T11:32:50;4.00;;;1.20;;
75016;SDS011;63577;39.766;2.720;2023-08-06T11:35:15;5.70;;;1.30;;
75016;SDS011;63577;39.766;2.720;2023-08-06T11:37:44;7.10;;;1.50;;
75016;SDS011;63577;39.766;2.720;2023-08-06T11:40:11;6.60;;;1.50;;
75016;SDS011;63577;39.766;2.720;2023-08-06T11:42:37;4.20;;;1.20;;
75016;SDS011;63577;39.766;2.720;2023-08-06T11:45:02;7.60;;;1.80;;
75016;SDS011;63577;39.766;2.720;2023-08-06T11:47:28;6.70;;;1.40;;
75016;SDS011;63577;39.766;2.720;2023-08-06T11:49:53;6.70;;;1.80;;
75016;SDS011;63577;39.766;2.720;2023-08-06T11:52:23;7.10;;;1.40;;
75016;SDS011;63577;39.766;2.720;2023-08-06T11:55:02;8.00;;;1.50;;
75016;SDS011;63577;39.766;2.720;2023-08-06T11:57:31;5.80;;;1.20;;
75016;SDS011;63577;39.766;2.720;2023-08-06T12:00:00;8.50;;;1.50;;
75016;SDS011;63577;39.766;2.720;2023-08-06T12:02:27;7.00;;;1.40;;
75016;SDS011;63577;39.766;2.720;2023-08-06T12:05:09;6.40;;;1.30;;
75016;SDS011;63577;39.766;2.720;2023-08-06T12:07:38;7.20;;;1.40;;
75016;SDS011;63577;39.766;2.720;2023-08-06T12:10:04;8.10;;;1.80;;
75016;SDS011;63577;39.766;2.720;2023-08-06T12:12:30;7.20;;;1.60;;
75016;SDS011;63577;39.766;2.720;2023-08-06T12:14:56;5.70;;;1.40;;
75016;SDS011;63577;39.766;2.720;2023-08-06T12:17:22;6.90;;;1.90;;
75016;SDS011;63577;39.766;2.720;2023-08-06T12:19:47;5.30;;;1.30;;
75016;SDS011;63577;39.766;2.720;2023-08-06T12:22:13;8.20;;;1.70;;
75016;SDS011;63577;39.766;2.720;2023-08-06T12:24:42;7.30;;;1.30;;
75016;SDS011;63577;39.766;2.720;2023-08-06T12:27:08;5.10;;;1.30;;
75016;SDS011;63577;39.766;2.720;2023-08-06T12:29:33;9.00;;;2.40;;
75016;SDS011;63577;39.766;2.720;2023-08-06T12:31:59;5.70;;;1.60;;
75016;SDS011;63577;39.766;2.720;2023-08-06T12:34:24;5.60;;;1.40;;
75016;SDS011;63577;39.766;2.720;2023-08-06T12:36:50;3.90;;;1.50;;
75016;SDS011;63577;39.766;2.720;2023-08-06T12:39:15;5.10;;;1.20;;
75016;SDS011;63577;39.766;2.720;2023-08-06T12:41:40;6.40;;;1.40;;
75016;SDS011;63577;39.766;2.720;2023-08-06T12:44:05;5.30;;;1.50;;
75016;SDS011;63577;39.766;2.720;2023-08-06T12:46:31;5.20;;;1.40;;
75016;SDS011;63577;39.766;2.720;2023-08-06T12:48:56;4.50;;;1.70;;
75016;SDS011;63577;39.766;2.720;2023-08-06T12:51:23;6.60;;;1.40;;
75016;SDS011;63577;39.766;2.720;2023-08-06T12:53:48;8.30;;;2.00;;
75016;SDS011;63577;39.766;2.720;2023-08-06T12:56:14;6.80;;;1.80;;
75016;SDS011;63577;39.766;2.720;2023-08-06T12:58:39;6.00;;;1.10;;
75016;SDS011;63577;39.766;2.720;2023-08-06T13:01:05;5.00;;;1.50;;
75016;SDS011;63577;39.766;2.720;2023-08-06T13:03:30;7.60;;;1.80;;
75016;SDS011;63577;39.766;2.720;2023-08-06T13:05:56;6.50;;;1.60;;
75016;SDS011;63577;39.766;2.720;2023-08-06T13:08:22;7.20;;;1.70;;
75016;SDS011;63577;39.766;2.720;2023-08-06T13:10:48;5.30;;;1.00;;
75016;SDS011;63577;39.766;2.720;2023-08-06T13:13:13;4.90;;;1.20;;
75016;SDS011;63577;39.766;2.720;2023-08-06T13:15:38;4.90;;;1.30;;
75016;SDS011;63577;39.766;2.720;2023-08-06T13:18:04;6.00;;;1.50;;
75016;SDS011;63577;39.766;2.720;2023-08-06T13:20:30;6.40;;;1.50;;
75016;SDS011;63577;39.766;2.720;2023-08-06T13:22:55;5.00;;;1.40;;
75016;SDS011;63577;39.766;2.720;2023-08-06T13:25:21;6.10;;;1.20;;
75016;SDS011;63577;39.766;2.720;2023-08-06T13:27:46;5.70;;;1.30;;
75016;SDS011;63577;39.766;2.720;2023-08-06T13:30:12;4.90;;;1.30;;
75016;SDS011;63577;39.766;2.720;2023-08-06T13:32:38;5.90;;;1.40;;
75016;SDS011;63577;39.766;2.720;2023-08-06T13:35:04;5.70;;;1.40;;
75016;SDS011;63577;39.766;2.720;2023-08-06T13:37:29;6.20;;;1.50;;
75016;SDS011;63577;39.766;2.720;2023-08-06T13:39:54;8.70;;;1.40;;
75016;SDS011;63577;39.766;2.720;2023-08-06T13:42:20;5.80;;;1.30;;
75016;SDS011;63577;39.766;2.720;2023-08-06T13:44:45;6.80;;;1.50;;
75016;SDS011;63577;39.766;2.720;2023-08-06T13:47:10;7.50;;;1.50;;
75016;SDS011;63577;39.766;2.720;2023-08-06T13:49:36;5.20;;;1.20;;
75016;SDS011;63577;39.766;2.720;2023-08-06T13:52:01;6.00;;;1.50;;
75016;SDS011;63577;39.766;2.720;2023-08-06T13:54:27;6.30;;;1.40;;
75016;SDS011;63577;39.766;2.720;2023-08-06T13:56:52;5.30;;;1.30;;
75016;SDS011;63577;39.766;2.720;2023-08-06T13:59:18;5.30;;;1.40;;
75016;SDS011;63577;39.766;2.720;2023-08-06T14:01:45;5.30;;;1.40;;
75016;SDS011;63577;39.766;2.720;2023-08-06T14:04:10;4.90;;;1.40;;
75016;SDS011;63577;39.766;2.720;2023-08-06T14:06:36;5.80;;;1.30;;
75016;SDS011;63577;39.766;2.720;2023-08-06T14:09:01;8.20;;;2.00;;
75016;SDS011;63577;39.766;2.720;2023-08-06T14:11:26;6.90;;;1.40;;
75016;SDS011;63577;39.766;2.720;2023-08-06T14:13:52;5.30;;;1.40;;
75016;SDS011;63577;39.766;2.720;2023-08-06T14:16:17;8.00;;;1.40;;
75016;SDS011;63577;39.766;2.720;2023-08-06T14:18:43;5.60;;;1.50;;
75016;SDS011;63577;39.766;2.720;2023-08-06T14:21:08;6.00;;;1.20;;
75016;SDS011;63577;39.766;2.720;2023-08-06T14:23:33;5.90;;;1.30;;
75016;SDS011;63577;39.766;2.720;2023-08-06T14:25:59;5.30;;;1.30;;
75016;SDS011;63577;39.766;2.720;2023-08-06T14:28:25;6.90;;;1.50;;
75016;SDS011;63577;39.766;2.720;2023-08-06T14:30:50;7.50;;;1.90;;
75016;SDS011;63577;39.766;2.720;2023-08-06T14:33:16;6.10;;;1.40;;
75016;SDS011;63577;39.766;2.720;2023-08-06T14:35:41;6.40;;;1.40;;
75016;SDS011;63577;39.766;2.720;2023-08-06T14:38:06;6.90;;;1.90;;
75016;SDS011;63577;39.766;2.720;2023-08-06T14:40:32;6.80;;;1.60;;
75016;SDS011;63577;39.766;2.720;2023-08-06T14:43:03;5.00;;;1.30;;
75016;SDS011;63577;39.766;2.720;2023-08-06T14:45:29;7.80;;;1.80;;
75016;SDS011;63577;39.766;2.720;2023-08-06T14:47:54;4.70;;;1.30;;
75016;SDS011;63577;39.766;2.720;2023-08-06T14:50:19;5.90;;;1.30;;
75016;SDS011;63577;39.766;2.720;2023-08-06T14:52:45;5.00;;;1.40;;
75016;SDS011;63577;39.766;2.720;2023-08-06T14:55:10;5.80;;;1.20;;
75016;SDS011;63577;39.766;2.720;2023-08-06T14:57:35;6.10;;;1.30;;